createdAt,value
2022-11-20T00:00:14.964Z,99.36
2022-11-20T00:02:44.680Z,99.31
2022-11-20T00:05:14.447Z,99.43
2022-11-20T00:07:44.162Z,99.50
2022-11-20T00:10:13.875Z,99.35
2022-11-20T00:12:46.189Z,99.43
2022-11-20T00:15:15.895Z,99.38
2022-11-20T00:17:45.635Z,99.35
2022-11-20T00:20:16.259Z,99.58
2022-11-20T00:22:45.979Z,99.59
2022-11-20T00:25:15.677Z,99.50
2022-11-20T00:27:47.967Z,99.49
2022-11-20T00:30:17.715Z,99.39
2022-11-20T00:32:47.385Z,99.65
2022-11-20T00:35:17.144Z,99.60
2022-11-20T00:37:46.862Z,99.64
2022-11-20T00:40:17.032Z,99.50
2022-11-20T00:42:49.349Z,99.55
2022-11-20T00:45:19.189Z,99.60
2022-11-20T00:47:48.888Z,99.64
2022-11-20T00:50:18.874Z,99.70
2022-11-20T00:52:48.592Z,99.70
2022-11-20T00:55:18.363Z,99.58
2022-11-20T00:57:50.672Z,99.61
2022-11-20T01:00:20.887Z,99.44
2022-11-20T01:02:50.684Z,99.68
2022-11-20T01:05:20.415Z,99.60
2022-11-20T01:07:50.108Z,99.46
2022-11-20T01:10:19.975Z,99.71
2022-11-20T01:13:12.303Z,99.41
2022-11-20T01:15:42.201Z,99.59
2022-11-20T01:18:11.931Z,99.68
2022-11-20T01:20:41.697Z,99.52
2022-11-20T01:23:11.543Z,99.62
2022-11-20T01:25:41.261Z,99.68
2022-11-20T01:28:13.632Z,99.63
2022-11-20T01:30:43.375Z,99.47
2022-11-20T01:33:13.234Z,99.57
2022-11-20T01:35:42.939Z,99.62
2022-11-20T01:38:12.692Z,99.68
2022-11-20T01:40:42.423Z,99.56
2022-11-20T01:43:21.821Z,99.59
2022-11-20T01:46:04.130Z,99.57
2022-11-20T01:48:39.884Z,99.49
2022-11-20T01:51:16.728Z,99.72
2022-11-20T01:53:47.058Z,99.68
2022-11-20T01:56:18.219Z,99.71
2022-11-20T01:58:54.755Z,99.71
2022-11-20T02:01:25.441Z,99.60
2022-11-20T02:03:55.388Z,99.47
2022-11-20T02:06:29.359Z,99.53
2022-11-20T02:08:59.521Z,99.55
2022-11-20T02:11:29.256Z,99.46
2022-11-20T02:13:59.562Z,99.65
2022-11-20T02:16:33.136Z,99.48
2022-11-20T02:19:05.699Z,99.62
2022-11-20T02:21:41.473Z,99.66
2022-11-20T02:24:18.995Z,99.47
2022-11-20T02:26:55.135Z,99.44
2022-11-20T02:29:29.843Z,99.42
2022-11-20T02:32:02.564Z,99.64
2022-11-20T02:34:32.708Z,99.53
2022-11-20T02:37:03.654Z,99.54
2022-11-20T02:39:36.000Z,99.44
2022-11-20T02:42:05.977Z,99.62
2022-11-20T02:44:35.727Z,99.33
2022-11-20T02:47:05.493Z,99.30
2022-11-20T02:49:35.755Z,99.41
2022-11-20T02:52:06.803Z,99.30
2022-11-20T02:54:39.256Z,99.42
2022-11-20T02:57:08.960Z,99.30
2022-11-20T02:59:38.696Z,99.38
2022-11-20T03:02:08.863Z,99.19
2022-11-20T03:04:38.722Z,99.26
2022-11-20T03:07:08.891Z,99.18
2022-11-20T03:09:41.308Z,99.12
2022-11-20T03:12:11.428Z,99.04
2022-11-20T03:14:41.187Z,99.06
2022-11-20T03:17:10.924Z,99.06
2022-11-20T03:19:40.727Z,98.85
2022-11-20T03:22:10.440Z,98.92
2022-11-20T03:24:42.812Z,98.83
2022-11-20T03:27:12.535Z,98.95
2022-11-20T03:29:42.370Z,98.74
2022-11-20T03:32:12.124Z,98.74
2022-11-20T03:34:41.859Z,98.89
2022-11-20T03:37:11.706Z,98.62
2022-11-20T03:39:44.054Z,98.82
2022-11-20T03:42:34.711Z,98.71
2022-11-20T03:45:04.476Z,98.94
2022-11-20T03:47:34.199Z,98.72
2022-11-20T03:50:03.999Z,98.73
2022-11-20T03:52:33.765Z,98.66
2022-11-20T03:55:06.451Z,98.70
2022-11-20T03:57:36.569Z,98.74
2022-11-20T04:00:07.528Z,98.79
2022-11-20T04:02:37.323Z,98.68
2022-11-20T04:05:07.568Z,98.73
2022-11-20T04:07:38.569Z,98.70
2022-11-20T04:10:11.866Z,98.63
2022-11-20T04:12:41.596Z,98.75
2022-11-20T04:15:13.349Z,98.57
2022-11-20T04:17:43.103Z,98.58
2022-11-20T04:20:13.618Z,98.65
2022-11-20T04:22:43.336Z,98.44
2022-11-20T04:25:15.628Z,98.46
2022-11-20T04:27:45.469Z,98.64
2022-11-20T04:30:16.416Z,98.51
2022-11-20T04:32:46.197Z,98.38
2022-11-20T04:35:16.061Z,98.32
2022-11-20T04:37:45.899Z,98.51
2022-11-20T04:40:19.313Z,98.41
2022-11-20T04:42:49.130Z,98.31
2022-11-20T04:45:19.235Z,98.36
2022-11-20T05:09:52.864Z,98.12
2022-11-20T05:12:22.655Z,98.18
2022-11-20T05:14:52.432Z,97.92
2022-11-20T05:17:22.272Z,98.04
2022-11-20T05:19:54.879Z,98.08
2022-11-20T05:22:24.876Z,98.05
2022-11-20T05:24:57.698Z,97.94
2022-11-20T05:27:27.541Z,97.83
2022-11-20T05:29:57.280Z,97.97
2022-11-20T05:32:27.925Z,98.13
2022-11-20T05:34:57.723Z,98.01
2022-11-20T05:37:27.693Z,97.96
2022-11-20T05:40:00.080Z,97.98
2022-11-20T05:42:37.047Z,98.06
2022-11-20T05:45:08.546Z,97.87
2022-11-20T05:47:38.625Z,97.87
2022-11-20T05:50:09.493Z,97.91
2022-11-20T05:52:39.375Z,97.98
2022-11-20T05:55:12.985Z,97.84
2022-11-20T05:57:42.775Z,97.97
2022-11-20T06:00:14.355Z,97.86
2022-11-20T06:02:44.371Z,97.93
2022-11-20T06:05:14.245Z,98.04
2022-11-20T06:07:44.032Z,98.07
2022-11-20T06:10:16.748Z,97.93
2022-11-20T06:12:46.548Z,98.17
2022-11-20T06:15:16.344Z,98.17
2022-11-20T06:17:46.118Z,98.05
2022-11-20T06:20:16.364Z,98.14
2022-11-20T06:22:46.088Z,98.23
2022-11-20T06:25:18.719Z,98.03
2022-11-20T06:27:56.780Z,98.18
2022-11-20T06:33:06.527Z,98.25
2022-11-20T06:35:36.357Z,98.16
2022-11-20T06:38:06.149Z,98.16
2022-11-20T06:40:38.556Z,98.35
2022-11-20T06:43:08.376Z,98.25
2022-11-20T06:45:38.123Z,98.32
2022-11-20T06:48:08.280Z,98.25
2022-11-20T06:50:38.272Z,98.19
2022-11-20T06:53:08.893Z,98.31
2022-11-20T06:55:45.658Z,98.26
2022-11-20T06:58:15.679Z,98.30
2022-11-20T07:00:45.895Z,98.33
2022-11-20T07:03:16.419Z,98.44
2022-11-20T07:05:47.115Z,98.46
2022-11-20T07:08:16.952Z,98.41
2022-11-20T07:10:49.453Z,98.44
2022-11-20T07:13:19.323Z,98.38
2022-11-20T07:15:49.188Z,98.50
2022-11-20T07:18:19.116Z,98.36
2022-11-20T07:20:48.903Z,98.35
2022-11-20T07:23:18.787Z,98.38
2022-11-20T07:25:51.234Z,98.47
2022-11-20T07:28:21.017Z,98.20
2022-11-20T07:30:54.336Z,98.37
2022-11-20T07:33:24.260Z,98.33
2022-11-20T07:35:54.258Z,98.25
2022-11-20T07:38:24.145Z,98.24
2022-11-20T07:41:02.689Z,98.31
2022-11-20T07:43:34.813Z,98.23
2022-11-20T07:46:08.578Z,98.22
2022-11-20T07:48:38.397Z,98.20
2022-11-20T07:51:08.366Z,98.28
2022-11-20T07:53:38.131Z,98.18
2022-11-20T07:56:11.349Z,98.24
2022-11-20T07:58:41.237Z,98.25
2022-11-20T08:01:11.937Z,98.45
2022-11-20T08:03:41.706Z,98.41
2022-11-20T08:06:11.938Z,98.55
2022-11-20T08:08:42.830Z,98.60
2022-11-20T08:11:27.987Z,98.60
2022-11-20T08:14:10.141Z,98.70
2022-11-20T08:16:39.837Z,98.67
2022-11-20T08:19:09.668Z,98.75
2022-11-20T08:21:39.439Z,98.85
2022-11-20T08:24:10.261Z,98.95
2022-11-20T08:26:43.818Z,98.89
2022-11-20T08:29:13.572Z,99.04
2022-11-20T08:31:43.312Z,99.03
2022-11-20T08:34:18.623Z,99.04
2022-11-20T08:36:49.012Z,99.34
2022-11-20T08:39:19.131Z,99.32
2022-11-20T08:41:51.647Z,99.33
2022-11-20T08:44:21.396Z,99.42
2022-11-20T08:46:51.106Z,99.45
2022-11-20T08:49:21.124Z,99.37
2022-11-20T08:51:53.526Z,99.56
2022-11-20T08:54:23.756Z,99.59
2022-11-20T08:56:56.084Z,99.65
2022-11-20T09:00:03.856Z,99.74
2022-11-20T09:02:16.481Z,99.85
2022-11-20T09:04:46.197Z,99.72
2022-11-20T09:07:16.083Z,99.75
2022-11-20T09:09:46.439Z,99.90
2022-11-20T09:12:19.004Z,99.94
2022-11-20T09:14:53.725Z,99.97
2022-11-20T09:17:24.649Z,99.98
2022-11-20T09:19:54.338Z,99.89
2022-11-20T09:22:24.020Z,100.00
2022-11-20T09:24:53.826Z,100.00
2022-11-20T09:27:26.184Z,100.00
2022-11-20T09:29:55.929Z,99.93
2022-11-20T09:32:25.643Z,100.00
2022-11-20T09:34:55.401Z,100.00
2022-11-20T09:37:25.228Z,100.00
2022-11-20T09:39:54.993Z,100.00
2022-11-20T09:42:39.020Z,100.00
2022-11-20T09:45:20.651Z,100.00
2022-11-20T09:48:07.047Z,100.00
2022-11-20T09:50:40.476Z,99.96
2022-11-20T09:53:17.544Z,99.89
2022-11-20T09:55:47.874Z,99.87
2022-11-20T09:58:30.692Z,99.99
2022-11-20T10:01:07.293Z,99.87
2022-11-20T10:03:45.804Z,99.93
2022-11-20T10:06:21.034Z,99.83
2022-11-20T10:08:59.427Z,99.82
2022-11-20T10:11:39.152Z,99.84
2022-11-20T10:14:24.128Z,99.77
2022-11-20T10:17:04.719Z,99.76
2022-11-20T10:20:05.113Z,99.84
2022-11-20T10:22:47.768Z,99.81
2022-11-20T10:25:19.787Z,99.82
2022-11-20T10:28:08.256Z,99.70
2022-11-20T10:30:46.081Z,99.88
2022-11-20T10:33:21.239Z,99.68
2022-11-20T10:35:57.018Z,99.84
2022-11-20T10:38:31.625Z,99.87
2022-11-20T10:41:17.362Z,99.75
2022-11-20T10:43:48.503Z,99.75
2022-11-20T10:46:23.963Z,99.70
2022-11-20T10:48:54.544Z,99.63
2022-11-20T10:51:39.521Z,99.64
2022-11-20T10:54:21.756Z,99.54
2022-11-20T10:56:54.590Z,99.67
2022-11-20T10:59:40.526Z,99.58
2022-11-20T11:02:36.171Z,99.61
2022-11-20T11:05:17.221Z,99.51
2022-11-20T11:07:49.162Z,99.52
2022-11-20T11:10:21.876Z,99.40
2022-11-20T11:12:52.133Z,99.41
2022-11-20T11:15:31.276Z,99.30
2022-11-20T11:18:03.689Z,99.26
2022-11-20T11:20:33.562Z,99.18
2022-11-20T11:23:03.823Z,99.21
2022-11-20T11:25:36.290Z,99.15
2022-11-20T11:28:08.107Z,99.07
2022-11-20T11:30:47.411Z,98.96
2022-11-20T11:33:23.799Z,98.77
2022-11-20T11:35:58.158Z,98.81
2022-11-20T11:38:33.736Z,98.64
2022-11-20T11:41:04.621Z,98.56
2022-11-20T11:43:50.012Z,98.39
2022-11-20T11:46:31.893Z,98.35
2022-11-20T11:49:06.126Z,98.22
2022-11-20T11:51:42.827Z,98.13
2022-11-20T11:54:20.822Z,98.00
2022-11-20T11:56:51.156Z,97.95
2022-11-20T11:59:31.581Z,97.85
2022-11-20T12:02:08.129Z,97.63
2022-11-20T12:04:48.317Z,97.48
2022-11-20T12:07:45.581Z,97.43
2022-11-20T12:10:23.085Z,97.23
2022-11-20T12:12:58.791Z,97.03
2022-11-20T12:15:35.057Z,96.84
2022-11-20T12:18:05.226Z,96.72
2022-11-20T12:20:45.836Z,96.65
2022-11-20T12:23:26.632Z,96.51
2022-11-20T12:26:00.992Z,96.36
2022-11-20T12:28:52.220Z,96.15
2022-11-20T12:31:35.552Z,95.98
2022-11-20T12:34:20.978Z,95.99
2022-11-20T12:37:02.458Z,95.88
2022-11-20T12:39:39.257Z,95.74
2022-11-20T12:42:40.442Z,95.64
2022-11-20T12:45:33.009Z,95.57
2022-11-20T12:48:29.322Z,95.34
2022-11-20T12:51:18.922Z,95.23
2022-11-20T12:54:07.083Z,95.23
2022-11-20T12:56:47.401Z,95.02
2022-11-20T12:59:37.332Z,94.96
2022-11-20T13:02:18.954Z,94.80
2022-11-20T13:05:09.018Z,94.67
2022-11-20T13:07:39.551Z,94.42
2022-11-20T13:10:22.080Z,94.26
2022-11-20T13:13:00.982Z,94.13
2022-11-20T13:15:43.296Z,93.84
2022-11-20T13:18:15.414Z,93.71
2022-11-20T13:20:47.890Z,93.54
2022-11-20T13:23:28.730Z,93.18
2022-11-20T13:26:25.908Z,92.99
2022-11-20T13:29:12.023Z,92.93
2022-11-20T13:31:47.741Z,92.72
2022-11-20T13:34:27.416Z,92.41
2022-11-20T13:36:58.656Z,92.30
2022-11-20T13:39:28.897Z,92.27
2022-11-20T13:42:03.335Z,92.02
2022-11-20T13:44:41.044Z,91.89
2022-11-20T13:47:24.925Z,91.56
2022-11-20T13:49:55.960Z,91.45
2022-11-20T13:52:46.117Z,91.22
2022-11-20T13:55:23.339Z,90.86
2022-11-20T13:58:25.887Z,90.67
2022-11-20T14:01:02.557Z,90.50
2022-11-20T14:04:04.623Z,90.25
2022-11-20T14:06:32.561Z,90.05
2022-11-20T14:09:04.514Z,89.91
2022-11-20T14:11:35.103Z,89.67
2022-11-20T14:14:11.363Z,89.52
2022-11-20T14:16:44.075Z,89.33
2022-11-20T14:19:38.290Z,89.21
2022-11-20T14:22:14.436Z,89.10
2022-11-20T14:24:44.154Z,89.08
2022-11-20T14:27:18.082Z,88.99
2022-11-20T14:29:49.698Z,88.69
2022-11-20T14:32:26.004Z,88.57
2022-11-20T14:34:55.858Z,88.52
2022-11-20T14:37:28.627Z,88.41
2022-11-20T14:40:00.128Z,88.36
2022-11-20T14:42:32.532Z,88.17
2022-11-20T14:45:03.862Z,88.10
2022-11-20T14:47:36.499Z,88.12
2022-11-20T14:50:10.029Z,88.08
2022-11-20T14:52:39.880Z,87.98
2022-11-20T14:55:12.073Z,87.93
2022-11-20T14:57:41.867Z,87.89
2022-11-20T15:00:24.425Z,87.81
2022-11-20T15:02:57.043Z,87.88
2022-11-20T15:05:29.657Z,87.79
2022-11-20T15:08:11.699Z,87.84
2022-11-20T15:10:42.111Z,88.00
2022-11-20T15:13:17.735Z,87.87
2022-11-20T15:15:56.015Z,87.78
2022-11-20T15:18:32.232Z,87.83
2022-11-20T15:21:05.595Z,87.72
2022-11-20T15:23:35.361Z,87.77
2022-11-20T15:26:05.616Z,87.64
2022-11-20T15:28:38.222Z,87.58
2022-11-20T15:31:08.113Z,87.62
2022-11-20T15:33:40.450Z,87.45
2022-11-20T15:36:10.473Z,87.38
2022-11-20T15:38:41.748Z,87.57
2022-11-20T15:41:12.529Z,87.39
2022-11-20T15:43:42.593Z,87.36
2022-11-20T15:46:17.700Z,87.31
2022-11-20T15:48:55.608Z,87.29
2022-11-20T15:51:30.475Z,87.22
2022-11-20T15:54:00.865Z,87.22
2022-11-20T15:56:31.039Z,87.00
2022-11-20T15:59:00.782Z,87.02
2022-11-20T16:01:30.584Z,86.96
2022-11-20T16:04:03.685Z,86.91
2022-11-20T16:06:33.413Z,86.98
2022-11-20T16:09:03.350Z,87.13
2022-11-20T16:11:33.111Z,87.22
2022-11-20T16:14:15.225Z,87.22
2022-11-20T16:16:44.971Z,87.24
2022-11-20T16:19:19.149Z,87.39
2022-11-20T16:21:48.867Z,87.35
2022-11-20T16:24:20.845Z,87.33
2022-11-20T16:26:50.936Z,87.34
2022-11-20T16:29:20.683Z,87.44
2022-11-20T16:31:50.505Z,87.43
2022-11-20T16:34:22.969Z,87.37
2022-11-20T16:36:52.929Z,87.38
2022-11-20T16:39:24.113Z,87.65
2022-11-20T16:41:54.198Z,87.60
2022-11-20T16:44:24.140Z,87.68
2022-11-20T16:46:54.007Z,87.78
2022-11-20T16:49:26.928Z,87.72
2022-11-20T16:51:56.658Z,87.69
2022-11-20T16:54:26.842Z,87.67
2022-11-20T16:56:57.000Z,87.77
2022-11-20T16:59:26.975Z,87.82
2022-11-20T17:01:56.733Z,87.88
2022-11-20T17:04:29.255Z,87.74
2022-11-20T17:07:01.497Z,87.94
2022-11-20T17:09:36.229Z,88.03
2022-11-20T17:12:06.231Z,88.02
2022-11-20T17:14:35.951Z,87.93
2022-11-20T17:17:05.894Z,87.96
2022-11-20T17:19:38.443Z,87.96
2022-11-20T17:22:08.303Z,88.07
2022-11-20T17:24:38.092Z,88.13
2022-11-20T17:27:07.858Z,88.10
2022-11-20T17:29:41.902Z,88.29
2022-11-20T17:32:11.987Z,88.35
2022-11-20T17:34:44.395Z,88.33
2022-11-20T17:37:14.073Z,88.42
2022-11-20T17:39:44.924Z,88.57
2022-11-20T17:42:27.042Z,88.48
2022-11-20T17:44:56.754Z,88.64
2022-11-20T17:47:26.447Z,88.54
2022-11-20T17:49:58.810Z,88.58
2022-11-20T17:52:28.534Z,88.54
2022-11-20T17:54:58.310Z,88.79
2022-11-20T17:57:40.447Z,88.81
2022-11-20T18:00:13.322Z,88.90
2022-11-20T18:02:43.062Z,88.81
2022-11-20T18:05:15.651Z,88.84
2022-11-20T18:07:45.438Z,88.83
2022-11-20T18:10:15.655Z,88.84
2022-11-20T18:12:45.392Z,88.97
2022-11-20T18:15:15.412Z,88.99
2022-11-20T18:17:45.122Z,88.98
2022-11-20T18:20:36.694Z,89.27
2022-11-20T18:23:07.396Z,89.16
2022-11-20T18:25:37.409Z,89.33
2022-11-20T18:28:07.289Z,89.28
2022-11-20T18:30:39.097Z,89.17
2022-11-20T18:33:08.808Z,89.22
2022-11-20T18:35:43.154Z,89.21
2022-11-20T18:38:12.890Z,89.15
2022-11-20T18:40:42.600Z,89.31
2022-11-20T18:43:26.422Z,89.04
2022-11-20T18:46:05.714Z,89.10
2022-11-20T18:48:35.455Z,89.13
2022-11-20T18:51:16.301Z,89.11
2022-11-20T18:53:47.673Z,89.26
2022-11-20T18:56:17.556Z,89.13
2022-11-20T18:58:47.326Z,89.19
2022-11-20T19:01:17.116Z,89.20
2022-11-20T19:03:46.993Z,89.19
2022-11-20T19:06:19.777Z,89.28
2022-11-20T19:08:49.686Z,89.53
2022-11-20T19:11:19.391Z,89.31
2022-11-20T19:13:49.371Z,89.36
2022-11-20T19:16:22.565Z,89.56
2022-11-20T19:18:52.399Z,89.61
2022-11-20T19:21:27.794Z,89.73
2022-11-20T19:23:59.195Z,89.73
2022-11-20T19:26:29.605Z,89.75
2022-11-20T19:29:02.284Z,89.84
2022-11-20T19:31:32.142Z,89.89
2022-11-20T19:34:03.622Z,89.88
2022-11-20T19:36:43.173Z,90.01
2022-11-20T19:39:15.272Z,89.90
2022-11-20T19:41:45.378Z,89.97
2022-11-20T19:44:17.312Z,90.04
2022-11-20T19:46:47.224Z,90.05
2022-11-20T19:49:17.540Z,90.29
2022-11-20T19:51:51.848Z,90.18
2022-11-20T19:54:21.557Z,90.25
2022-11-20T19:56:51.792Z,90.41
2022-11-20T19:59:21.699Z,90.17
2022-11-20T20:01:51.713Z,90.38
2022-11-20T20:04:21.432Z,90.24
2022-11-20T20:06:53.788Z,90.33
2022-11-20T20:09:23.992Z,90.36
2022-11-20T20:11:53.851Z,90.35
2022-11-20T20:14:23.533Z,90.43
2022-11-20T20:16:53.195Z,90.52
2022-11-20T20:19:23.296Z,90.43
2022-11-20T20:21:55.844Z,90.53
2022-11-20T20:24:25.563Z,90.59
2022-11-20T20:26:58.173Z,90.48
2022-11-20T20:29:28.258Z,90.77
2022-11-20T20:31:57.937Z,90.72
2022-11-20T20:34:29.802Z,90.73
2022-11-20T20:37:03.156Z,90.86
2022-11-20T20:39:32.884Z,91.03
2022-11-20T20:42:02.575Z,91.06
2022-11-20T20:44:44.688Z,90.83
2022-11-20T20:47:14.397Z,91.07
2022-11-20T20:49:44.339Z,90.96
2022-11-20T20:52:16.706Z,91.10
2022-11-20T20:54:46.410Z,91.14
2022-11-20T20:57:16.133Z,90.91
2022-11-20T20:59:45.850Z,91.14
2022-11-20T21:02:15.543Z,91.10
2022-11-20T21:04:45.255Z,91.02
2022-11-20T21:07:17.737Z,91.15
2022-11-20T21:09:47.866Z,91.09
2022-11-20T21:12:18.943Z,91.32
2022-11-20T21:14:48.819Z,91.17
2022-11-20T21:17:18.581Z,91.10
2022-11-20T21:19:48.326Z,91.09
2022-11-20T21:22:18.040Z,91.27
2022-11-20T21:24:47.749Z,91.15
2022-11-20T21:27:17.486Z,91.35
2022-11-20T21:29:47.172Z,91.37
2022-11-20T21:32:19.996Z,91.28
2022-11-20T21:34:49.758Z,91.47
2022-11-20T21:37:22.097Z,91.35
2022-11-20T21:39:53.847Z,91.53
2022-11-20T21:42:23.640Z,91.40
2022-11-20T21:44:53.340Z,91.41
2022-11-20T21:47:23.059Z,91.33
2022-11-20T21:49:52.808Z,91.58
2022-11-20T21:52:25.137Z,91.67
2022-11-20T21:54:54.898Z,91.66
2022-11-20T21:57:24.945Z,91.68
2022-11-20T21:59:54.714Z,91.80
2022-11-20T22:02:24.512Z,91.88
2022-11-20T22:04:54.411Z,91.85
2022-11-20T22:07:26.811Z,91.83
2022-11-20T22:09:56.547Z,91.69
2022-11-20T22:12:26.296Z,91.93
2022-11-20T22:14:53.417Z,91.79
2022-11-20T22:17:43.344Z,91.89
2022-11-20T22:20:13.865Z,91.93
2022-11-20T22:22:46.192Z,92.07
2022-11-20T22:25:15.880Z,92.11
2022-11-20T22:27:45.577Z,91.91
2022-11-20T22:30:16.484Z,92.12
2022-11-20T22:32:46.159Z,92.05
2022-11-20T22:35:16.158Z,92.11
2022-11-20T22:37:51.574Z,92.11
2022-11-20T22:40:21.446Z,92.17
2022-11-20T22:42:51.200Z,92.13
2022-11-20T22:45:21.271Z,92.09
2022-11-20T22:47:50.987Z,92.16
2022-11-20T22:50:20.871Z,91.99
2022-11-20T22:52:53.158Z,91.96
2022-11-20T22:55:22.867Z,91.99
2022-11-20T22:57:52.575Z,92.24
2022-11-20T23:00:23.027Z,92.22
2022-11-20T23:02:52.720Z,92.19
2022-11-20T23:05:22.414Z,92.26
2022-11-20T23:07:54.688Z,92.31
2022-11-20T23:10:24.427Z,92.32
2022-11-20T23:12:54.112Z,92.40
2022-11-20T23:15:23.824Z,92.39
2022-11-20T23:17:53.539Z,92.43
2022-11-20T23:20:23.263Z,92.44
2022-11-20T23:22:55.561Z,92.61
2022-11-20T23:25:25.382Z,92.54
2022-11-20T23:27:56.055Z,92.61
2022-11-20T23:30:26.015Z,92.53
2022-11-20T23:32:55.698Z,92.70
2022-11-20T23:35:25.486Z,92.69
2022-11-20T23:38:00.320Z,92.67
2022-11-20T23:40:30.061Z,92.79
2022-11-20T23:43:12.163Z,92.72
2022-11-20T23:45:42.428Z,92.94
2022-11-20T23:48:12.152Z,92.80
2022-11-20T23:50:42.021Z,93.04
2022-11-20T23:53:14.959Z,93.14
2022-11-20T23:55:47.850Z,93.23
2022-11-20T23:58:20.890Z,93.21
